Vreme - Novo mesto - 190m - DAVIS Vantage Pro2
Weather data: current petek, 26.04.2019 10:20
Date Time Temp. O. Hum. O. Baro. Rain Wind Direction Direction Wind gust
26.04.2019 10:20 21.2 C 56 % 1014.7 hPa 0.0 mm 6.4 km/h W 270 14.5 km/h
26.04.2019 09:20 17.6 C 76 % 1015.2 hPa 0.0 mm 1.6 km/h SE 135 4.8 km/h
26.04.2019 08:20 14.2 C 86 % 1015.8 hPa 0.0 mm 1.6 km/h S-SE 155 6.4 km/h
26.04.2019 07:20 12.1 C 90 % 1015.8 hPa 0.0 mm 0.0 km/h N 0 0.0 km/h
26.04.2019 06:20 12.4 C 88 % 1015.9 hPa 0.0 mm 1.6 km/h W 270 6.4 km/h
26.04.2019 05:20 13.0 C 87 % 1015.8 hPa 0.0 mm 1.6 km/h S-SW 200 9.7 km/h
26.04.2019 04:20 14.1 C 83 % 1016.2 hPa 0.0 mm 3.2 km/h SW 225 6.4 km/h
26.04.2019 03:20 13.7 C 85 % 1016.6 hPa 0.0 mm 1.6 km/h S-SW 200 11.3 km/h
26.04.2019 02:20 13.7 C 83 % 1016.8 hPa 0.0 mm 1.6 km/h S 180 8.0 km/h
26.04.2019 01:20 13.7 C 84 % 1017.3 hPa 0.0 mm 3.2 km/h SW 225 12.9 km/h
26.04.2019 00:20 14.4 C 81 % 1017.7 hPa 0.0 mm 1.6 km/h W 270 4.8 km/h
25.04.2019 23:20 14.8 C 78 % 1017.9 hPa 0.0 mm 0.0 km/h W 270 3.2 km/h
25.04.2019 22:20 16.1 C 73 % 1018.0 hPa 0.0 mm 1.6 km/h W-SW 245 4.8 km/h
25.04.2019 21:20 17.9 C 64 % 1017.8 hPa 0.0 mm 1.6 km/h W-SW 245 3.2 km/h
25.04.2019 20:20 20.0 C 55 % 1017.4 hPa 0.0 mm 3.2 km/h W 270 11.3 km/h
25.04.2019 19:20 21.3 C 50 % 1017.2 hPa 0.0 mm 8.0 km/h SW 225 19.3 km/h
25.04.2019 18:20 23.2 C 43 % 1017.1 hPa 0.0 mm 8.0 km/h SW 225 16.1 km/h
25.04.2019 17:20 23.7 C 44 % 1016.8 hPa 0.0 mm 11.3 km/h SW 225 24.1 km/h
25.04.2019 16:20 23.6 C 47 % 1016.9 hPa 0.0 mm 14.5 km/h S-SW 200 27.4 km/h
25.04.2019 15:20 23.8 C 46 % 1017.2 hPa 0.0 mm 12.9 km/h SW 225 24.1 km/h
25.04.2019 14:20 23.5 C 45 % 1017.5 hPa 0.0 mm 12.9 km/h S-SW 200 25.7 km/h
25.04.2019 13:20 23.4 C 45 % 1018.0 hPa 0.0 mm 14.5 km/h SW 225 25.7 km/h
25.04.2019 12:20 22.9 C 44 % 1018.1 hPa 0.0 mm 16.1 km/h SW 225 27.4 km/h
25.04.2019 11:20 22.1 C 49 % 1018.4 hPa 0.0 mm 8.0 km/h SW 225 20.9 km/h
25.04.2019 11:00 21.1 C 55 % 1018.5 hPa 0.0 mm 6.4 km/h W 270 14.5 km/h
_ Min-Time 07:00 18:30 10:20 - 20:40 - - 21:50
Minimum _ 12.1 C 41 % 1014.7 hPa - 0.0 km/h - - 0.0 km/h
_ Max-Time 15:00 07:20 11:00 11:00 12:20 - - 14:00
Maximum _ 23.9 C 90 % 1018.5 hPa 0.0 mm 16.1 km/h
SW
- - 30.6 km/h
S-SW
Average _ 18.1 C 66 % 1017.0 hPa #0.0 mm 5.4 km/h SW - 13.1 km/h